KPTN/PTN METAR and TAF weather

Enter ICAO airport designator
Station Type Date Time Source
KPTN METAR 2020/11/28 19:56 UTC NOAA

KPTN 281956Z AUTO 07007KT 10SM -RA FEW008 BKN085 OVC100 19/18 A3006 RMK AO2 SLP178 P0002 T01890183 $


Station Type Date Time Source
KPTN Decoded METAR 2020/11/28 19:56 UTC NOAA

Patterson Memorial, LA, United States (KPTN) 29-43N 091-20W
Nov 28, 2020 - 02:56 PM EST / 2020.11.28 1956 UTC
Wind: from the ENE (070 degrees) at 8 MPH (7 KT):0
Visibility: 10 mile(s):0
Sky conditions: overcast
Weather: light rain
Precipitation last hour: 0.02 inches
Temperature: 66.0 F (18.9 C)
Dew Point: 64.9 F (18.3 C)
Relative Humidity: 96%
Pressure (altimeter): 30.06 in. Hg (1017 hPa)
ob: KPTN 281956Z AUTO 07007KT 10SM -RA FEW008 BKN085 OVC100 19/18 A3006 RMK AO2 SLP178 P0002 T01890183
cycle: 20

Station Type Date Time Source
KPTN TAF UTC NOAA

Error!

Example: see airport list